Time;durP1;ratioP1;P1;durP2;ratioP2;P2;SDS_P1;SDS_P2;PMS_P1;PMS_P2;Temp;Humidity;BMP_temperature;BMP_pressure;BME280_temperature;BME280_humidity;BME280_pressure;Samples;Min_cycle;Max_cycle;Signal;HPM_P1;HPM_P2
2023/03/04 00:01:41;;;;;;;30.23;18.33;;;7.20;81.30;;;;;;6276618;22;20004;-66
2023/03/04 00:04:07;;;;;;;29.93;18.90;;;7.20;81.30;;;;;;6276299;22;20460;-66
2023/03/04 00:06:32;;;;;;;26.00;16.77;;;7.10;81.30;;;;;;6276696;22;20006;-66
2023/03/04 00:08:58;;;;;;;27.77;18.43;;;7.10;81.40;;;;;;6276213;22;20006;-67
2023/03/04 00:11:24;;;;;;;30.00;18.07;;;7.10;81.50;;;;;;6276500;22;20156;-67
2023/03/04 00:13:50;;;;;;;26.03;17.37;;;7.10;81.60;;;;;;6276697;22;20295;-67
2023/03/04 00:16:15;;;;;;;26.57;17.87;;;7.10;81.80;;;;;;6276465;22;20075;-66
2023/03/04 00:18:41;;;;;;;30.63;17.93;;;7.00;81.80;;;;;;6276354;22;20000;-67
2023/03/04 00:21:07;;;;;;;28.23;17.53;;;7.00;81.50;;;;;;6276648;22;20006;-66
2023/03/04 00:23:32;;;;;;;29.80;16.80;;;7.00;81.60;;;;;;6276334;22;20002;-66
2023/03/04 00:25:58;;;;;;;27.57;16.83;;;7.00;81.60;;;;;;6276564;22;20007;-66
2023/03/04 00:28:24;;;;;;;24.07;16.17;;;6.90;81.90;;;;;;6276157;22;20000;-68
2023/03/04 00:30:50;;;;;;;25.30;17.83;;;6.90;82.00;;;;;;6275852;22;20053;-66
2023/03/04 00:33:15;;;;;;;29.37;19.10;;;6.90;82.10;;;;;;6276229;22;20003;-67
2023/03/04 00:35:41;;;;;;;32.70;22.63;;;6.90;82.50;;;;;;6274465;22;20031;-68
2023/03/04 00:38:07;;;;;;;33.53;21.50;;;6.80;82.50;;;;;;6276249;22;20004;-67
2023/03/04 00:40:33;;;;;;;32.73;22.07;;;6.90;82.60;;;;;;6275840;22;20003;-67
2023/03/04 00:42:59;;;;;;;34.23;21.07;;;6.80;82.60;;;;;;6276296;22;19996;-66
2023/03/04 00:45:24;;;;;;;26.87;18.93;;;6.90;82.80;;;;;;6276422;22;20027;-67
2023/03/04 00:47:50;;;;;;;26.63;18.77;;;6.90;82.90;;;;;;6276066;22;20000;-67
2023/03/04 00:50:16;;;;;;;26.77;17.60;;;6.90;82.90;;;;;;6276158;22;20007;-66
2023/03/04 00:52:42;;;;;;;29.30;18.57;;;6.90;82.60;;;;;;6275931;22;20098;-66
2023/03/04 00:55:08;;;;;;;30.93;20.03;;;6.90;82.30;;;;;;6276228;22;20108;-66
2023/03/04 00:57:34;;;;;;;33.30;21.60;;;6.80;82.60;;;;;;6276231;22;19996;-66
2023/03/04 00:59:59;;;;;;;35.20;20.13;;;6.70;82.20;;;;;;6276218;22;20027;-66
2023/03/04 01:02:25;;;;;;;30.23;19.27;;;6.70;82.20;;;;;;6276541;22;20070;-68
2023/03/04 01:04:51;;;;;;;27.40;17.23;;;6.70;82.00;;;;;;6276173;22;20054;-67
2023/03/04 01:07:17;;;;;;;28.23;18.50;;;6.60;82.30;;;;;;6275625;22;20010;-68
2023/03/04 01:09:43;;;;;;;27.23;16.80;;;6.50;82.30;;;;;;6276300;22;19999;-67
2023/03/04 01:12:09;;;;;;;22.47;15.63;;;6.50;82.50;;;;;;6276101;22;20019;-66
2023/03/04 01:14:34;;;;;;;23.73;16.47;;;6.50;82.60;;;;;;6275863;22;20003;-68
2023/03/04 01:17:00;;;;;;;26.77;16.47;;;6.50;82.80;;;;;;6275960;22;20006;-69
2023/03/04 01:19:26;;;;;;;28.03;16.13;;;6.50;83.10;;;;;;6275846;22;20474;-66
2023/03/04 01:21:52;;;;;;;24.90;16.23;;;6.50;83.20;;;;;;6276004;22;20426;-65
2023/03/04 01:24:17;;;;;;;24.77;16.20;;;6.50;83.40;;;;;;6276076;22;19999;-67
2023/03/04 01:26:43;;;;;;;22.70;15.73;;;6.50;83.40;;;;;;6276016;22;20000;-67
2023/03/04 01:29:09;;;;;;;27.67;16.87;;;6.50;83.20;;;;;;6275887;22;20045;-66
2023/03/04 01:31:35;;;;;;;25.77;16.93;;;6.40;83.30;;;;;;6276042;22;20069;-67
2023/03/04 01:34:00;;;;;;;25.77;17.97;;;6.40;83.60;;;;;;6275782;22;20000;-67
2023/03/04 01:36:26;;;;;;;26.97;17.43;;;6.50;83.70;;;;;;6276363;22;20010;-68
2023/03/04 01:38:52;;;;;;;25.37;17.40;;;6.40;83.60;;;;;;6275633;22;20046;-66
2023/03/04 01:41:23;;;;;;;28.73;19.17;;;6.50;83.70;;;;;;6275790;22;20393;-67
2023/03/04 01:43:49;;;;;;;32.20;17.87;;;6.50;83.60;;;;;;6275784;22;19995;-66
2023/03/04 01:46:16;;;;;;;22.57;16.60;;;6.60;83.70;;;;;;6275871;22;20011;-68
2023/03/04 01:48:43;;;;;;;25.10;17.47;;;6.60;83.70;;;;;;6277907;22;20145;-64
2023/03/04 01:51:14;;;;;;;27.03;17.60;;;6.60;83.60;;;;;;6278289;22;20073;-68
2023/03/04 01:53:39;;;;;;;25.37;17.33;;;6.70;83.40;;;;;;6277903;22;20026;-68
2023/03/04 01:56:18;;;;;;;26.70;17.73;;;6.70;83.10;;;;;;6277507;22;20481;-67
2023/03/04 01:58:44;;;;;;;27.43;17.27;;;6.70;82.70;;;;;;6275369;22;20015;-67
2023/03/04 02:01:11;;;;;;;24.27;16.63;;;6.60;82.10;;;;;;6274501;22;20010;-66
2023/03/04 02:03:37;;;;;;;24.13;16.53;;;6.60;82.20;;;;;;6274479;22;20627;-67
2023/03/04 02:06:03;;;;;;;22.83;15.83;;;6.50;82.60;;;;;;6277149;22;20003;-67
2023/03/04 02:08:29;;;;;;;24.60;16.70;;;6.40;82.70;;;;;;6277398;22;20008;-67
2023/03/04 02:10:55;;;;;;;28.40;16.37;;;6.40;83.00;;;;;;6277455;22;20441;-67
2023/03/04 02:13:21;;;;;;;24.73;16.57;;;6.30;83.40;;;;;;6277300;22;20007;-66
2023/03/04 02:15:47;;;;;;;25.10;15.73;;;6.20;83.70;;;;;;6277524;22;20057;-66
2023/03/04 02:18:23;;;;;;;25.57;16.87;;;6.20;83.90;;;;;;6277469;22;20030;-67
2023/03/04 02:21:01;;;;;;;22.53;15.70;;;6.20;84.40;;;;;;6277496;22;20338;-66
2023/03/04 02:23:54;;;;;;;25.27;17.70;;;6.30;84.60;;;;;;6277613;22;20031;-67
2023/03/04 02:26:31;;;;;;;25.02;16.05;;;6.30;84.50;;;;;;6278026;22;20007;-67
2023/03/04 02:28:59;;;;;;;26.47;17.17;;;6.30;84.70;;;;;;6277076;22;19999;-67
2023/03/04 02:31:33;;;;;;;24.93;16.13;;;6.30;84.60;;;;;;6276633;22;20011;-67
2023/03/04 02:34:20;;;;;;;24.93;16.17;;;6.30;84.70;;;;;;6277600;22;20003;-68
2023/03/04 02:36:48;;;;;;;30.13;17.37;;;6.40;84.70;;;;;;6276418;22;20427;-66
2023/03/04 02:39:19;;;;;;;27.17;17.23;;;6.40;84.30;;;;;;6277346;22;19996;-67
2023/03/04 02:41:49;;;;;;;27.03;17.30;;;6.40;84.10;;;;;;6277282;22;20030;-68
2023/03/04 02:44:19;;;;;;;27.60;17.63;;;6.40;83.40;;;;;;6276981;22;20008;-66
2023/03/04 02:46:45;;;;;;;27.27;16.60;;;6.30;83.10;;;;;;6277685;22;19992;-67
2023/03/04 02:49:11;;;;;;;29.73;16.73;;;6.30;82.40;;;;;;6277524;22;20048;-66
2023/03/04 02:51:38;;;;;;;28.40;16.83;;;6.20;82.50;;;;;;6277071;22;20023;-67
2023/03/04 02:54:04;;;;;;;26.90;17.03;;;6.20;82.70;;;;;;6277136;22;20000;-67
2023/03/04 02:56:30;;;;;;;24.33;16.33;;;6.10;82.60;;;;;;6277573;22;20006;-67
2023/03/04 02:58:55;;;;;;;25.33;15.60;;;6.10;82.70;;;;;;6276973;22;20024;-67
2023/03/04 03:01:21;;;;;;;24.33;16.43;;;6.00;82.90;;;;;;6277399;22;20071;-67
2023/03/04 03:03:47;;;;;;;26.50;16.30;;;6.00;83.20;;;;;;6277460;22;19996;-69
2023/03/04 03:06:12;;;;;;;25.83;17.13;;;5.90;83.20;;;;;;6277386;22;20057;-68
2023/03/04 03:08:38;;;;;;;26.50;16.83;;;5.90;83.30;;;;;;6277307;22;20326;-68
2023/03/04 03:11:04;;;;;;;26.13;16.80;;;5.90;83.60;;;;;;6277092;22;20406;-67
2023/03/04 03:13:30;;;;;;;24.07;16.37;;;5.90;83.70;;;;;;6277300;22;20419;-67
2023/03/04 03:15:55;;;;;;;23.13;16.60;;;5.90;83.70;;;;;;6277261;22;20382;-67
2023/03/04 03:18:21;;;;;;;24.63;16.27;;;5.90;83.70;;;;;;6277162;22;20004;-68
2023/03/04 03:20:46;;;;;;;30.90;16.20;;;5.80;84.00;;;;;;6277074;22;20073;-67
2023/03/04 03:23:12;;;;;;;24.60;16.80;;;5.80;84.30;;;;;;6276756;22;20036;-67
2023/03/04 03:25:38;;;;;;;26.37;17.07;;;5.90;84.50;;;;;;6277409;22;20011;-67
2023/03/04 03:28:04;;;;;;;26.30;17.73;;;5.80;84.60;;;;;;6277192;22;20369;-68
2023/03/04 03:30:29;;;;;;;26.67;16.70;;;5.80;84.50;;;;;;6277058;22;20480;-68
2023/03/04 03:32:55;;;;;;;25.27;17.03;;;5.80;84.60;;;;;;6276883;22;20007;-67
2023/03/04 03:35:21;;;;;;;28.73;17.87;;;5.80;84.80;;;;;;6276928;22;20004;-65
2023/03/04 03:37:47;;;;;;;26.87;17.03;;;5.90;85.00;;;;;;6276807;22;20423;-67
2023/03/04 03:40:14;;;;;;;26.50;18.20;;;5.90;85.10;;;;;;6277156;22;19999;-69
2023/03/04 03:42:39;;;;;;;28.60;17.60;;;5.90;85.00;;;;;;6276805;22;20004;-67
2023/03/04 03:45:06;;;;;;;25.87;17.67;;;5.90;85.10;;;;;;6276613;22;20087;-69
2023/03/04 03:47:31;;;;;;;27.40;16.97;;;5.90;85.10;;;;;;6277027;22;20010;-65
2023/03/04 03:49:57;;;;;;;23.73;16.50;;;5.90;84.80;;;;;;6276683;22;20111;-67
2023/03/04 03:52:23;;;;;;;28.00;17.43;;;5.90;84.10;;;;;;6276679;22;20007;-67
2023/03/04 03:54:48;;;;;;;21.93;16.43;;;5.90;84.20;;;;;;6277087;22;20006;-67
2023/03/04 03:57:14;;;;;;;25.37;16.57;;;5.80;84.10;;;;;;6276705;22;19996;-65
2023/03/04 03:59:40;;;;;;;25.20;16.97;;;5.80;84.00;;;;;;6276907;22;20002;-67
2023/03/04 04:02:05;;;;;;;27.83;16.73;;;5.80;84.00;;;;;;6276909;22;20303;-69
2023/03/04 04:04:31;;;;;;;25.93;16.77;;;5.70;83.40;;;;;;6276549;22;20000;-68
2023/03/04 04:06:57;;;;;;;25.17;17.27;;;5.70;83.30;;;;;;6276299;22;20070;-69
2023/03/04 04:09:23;;;;;;;32.53;16.50;;;5.60;83.10;;;;;;6276541;22;20004;-70
2023/03/04 04:11:49;;;;;;;23.53;16.10;;;5.60;83.00;;;;;;6276574;22;20011;-71
2023/03/04 04:14:14;;;;;;;27.47;17.17;;;5.50;83.10;;;;;;6276392;22;20067;-70
2023/03/04 04:16:41;;;;;;;28.90;17.47;;;5.50;83.10;;;;;;6276610;22;20430;-69
2023/03/04 04:19:06;;;;;;;25.43;17.07;;;5.40;83.30;;;;;;6276359;22;20027;-69
2023/03/04 04:21:32;;;;;;;26.37;16.53;;;5.40;83.50;;;;;;6276675;22;20003;-67
2023/03/04 04:23:58;;;;;;;24.17;17.17;;;5.30;83.20;;;;;;6276164;22;20070;-67
2023/03/04 04:26:23;;;;;;;26.27;17.80;;;5.30;83.50;;;;;;6275836;22;20074;-67
2023/03/04 04:28:49;;;;;;;29.77;19.90;;;5.30;83.80;;;;;;6276537;22;20000;-69
2023/03/04 04:31:15;;;;;;;27.57;21.60;;;5.20;83.60;;;;;;6276461;22;20014;-68
2023/03/04 04:33:40;;;;;;;30.17;20.83;;;5.20;84.00;;;;;;6276229;22;20118;-70
2023/03/04 04:36:09;;;;;;;26.77;19.17;;;5.20;84.30;;;;;;6276131;22;20000;-66
2023/03/04 04:38:36;;;;;;;26.53;18.40;;;5.20;84.50;;;;;;6276420;22;20071;-69
2023/03/04 04:41:02;;;;;;;31.37;18.53;;;5.20;84.30;;;;;;6276405;22;20010;-71
2023/03/04 04:43:28;;;;;;;27.73;18.13;;;5.20;84.30;;;;;;6274199;22;20431;-69
2023/03/04 04:45:54;;;;;;;27.43;18.23;;;5.10;84.50;;;;;;6272798;22;20039;-68
2023/03/04 04:48:19;;;;;;;25.40;17.60;;;5.10;84.40;;;;;;6273932;22;20064;-70
2023/03/04 04:50:45;;;;;;;23.50;16.70;;;5.10;84.20;;;;;;6276137;22;20033;-68
2023/03/04 04:53:13;;;;;;;22.97;16.60;;;5.00;83.90;;;;;;6276235;22;20029;-69
2023/03/04 04:55:38;;;;;;;27.50;17.40;;;5.00;83.80;;;;;;6276373;22;20326;-69
2023/03/04 04:58:06;;;;;;;27.17;17.83;;;5.00;84.20;;;;;;6276288;22;20074;-67
2023/03/04 05:00:32;;;;;;;26.50;17.77;;;4.90;84.40;;;;;;6276483;22;20074;-69
2023/03/04 05:02:57;;;;;;;27.10;17.40;;;5.00;84.60;;;;;;6276194;22;20453;-68
2023/03/04 05:05:23;;;;;;;31.67;17.00;;;5.00;84.60;;;;;;6276253;22;20004;-68
2023/03/04 05:07:49;;;;;;;29.73;18.37;;;4.90;84.60;;;;;;6275050;22;20000;-69
2023/03/04 05:10:15;;;;;;;27.53;18.33;;;4.90;84.30;;;;;;6271455;22;20012;-71
2023/03/04 05:12:40;;;;;;;30.03;18.17;;;4.90;84.10;;;;;;6273158;22;20054;-69
2023/03/04 05:15:06;;;;;;;27.70;16.87;;;4.90;84.60;;;;;;6274487;22;20000;-69
2023/03/04 05:17:32;;;;;;;31.20;18.10;;;4.80;84.80;;;;;;6275894;22;20442;-67
2023/03/04 05:19:58;;;;;;;28.07;17.63;;;4.80;85.20;;;;;;6275601;22;19996;-67
2023/03/04 05:22:23;;;;;;;33.77;16.67;;;4.70;85.10;;;;;;6277840;22;20003;-68
2023/03/04 05:24:49;;;;;;;32.50;18.00;;;4.80;85.20;;;;;;6277967;22;20000;-70
2023/03/04 05:27:14;;;;;;;31.07;16.90;;;4.80;84.90;;;;;;6278638;22;20019;-67
2023/03/04 05:29:43;;;;;;;29.57;17.70;;;4.70;84.90;;;;;;6276621;22;20007;-68
2023/03/04 05:32:09;;;;;;;26.27;16.87;;;4.70;84.90;;;;;;6277412;22;20034;-69
2023/03/04 05:34:34;;;;;;;29.93;17.50;;;4.70;84.60;;;;;;6277989;22;20491;-69
2023/03/04 05:37:00;;;;;;;32.07;18.47;;;4.60;84.50;;;;;;6278073;22;20057;-70
2023/03/04 05:39:26;;;;;;;24.00;17.33;;;4.60;84.60;;;;;;6277903;22;19996;-71
2023/03/04 05:41:51;;;;;;;29.90;17.83;;;4.60;84.80;;;;;;6278128;22;19999;-70
2023/03/04 05:44:17;;;;;;;30.93;18.83;;;4.60;85.00;;;;;;6277795;22;20415;-70
2023/03/04 05:46:43;;;;;;;26.63;19.53;;;4.50;85.10;;;;;;6277218;22;20000;-67
2023/03/04 05:49:08;;;;;;;30.07;19.27;;;4.50;85.40;;;;;;6277577;22;20039;-69
2023/03/04 05:51:34;;;;;;;28.43;19.57;;;4.50;85.80;;;;;;6277670;22;20019;-65
2023/03/04 05:53:59;;;;;;;29.47;19.57;;;4.50;85.70;;;;;;6277082;22;19999;-68
2023/03/04 05:56:25;;;;;;;26.60;18.23;;;4.50;85.80;;;;;;6277129;22;19999;-70
2023/03/04 05:58:51;;;;;;;32.53;19.07;;;4.50;85.90;;;;;;6277659;22;20007;-72
2023/03/04 06:01:16;;;;;;;29.40;19.60;;;4.50;86.10;;;;;;6277272;22;20411;-65
2023/03/04 06:03:42;;;;;;;32.67;18.67;;;4.50;86.40;;;;;;6277563;22;20326;-66
2023/03/04 06:06:08;;;;;;;28.00;19.07;;;4.50;86.70;;;;;;6277962;22;20442;-64
2023/03/04 06:08:34;;;;;;;27.77;19.37;;;4.60;86.70;;;;;;6277205;22;19999;-65
2023/03/04 06:11:00;;;;;;;29.63;18.13;;;4.60;86.80;;;;;;6277330;22;20000;-66
2023/03/04 06:13:26;;;;;;;29.90;19.90;;;4.60;87.10;;;;;;6277468;22;20008;-66
2023/03/04 06:15:56;;;;;;;31.10;19.97;;;4.60;87.30;;;;;;6277423;22;19999;-67
2023/03/04 06:18:22;;;;;;;33.90;19.33;;;4.60;87.30;;;;;;6277476;22;20464;-67
2023/03/04 06:20:48;;;;;;;30.70;19.50;;;4.60;87.30;;;;;;6277153;22;20000;-67
2023/03/04 06:23:14;;;;;;;30.97;18.87;;;4.60;86.90;;;;;;6277320;22;20079;-72
2023/03/04 06:25:40;;;;;;;28.87;18.87;;;4.60;87.00;;;;;;6277656;22;20034;-71
2023/03/04 06:28:06;;;;;;;31.37;18.63;;;4.60;87.40;;;;;;6277485;22;20000;-71
2023/03/04 06:30:31;;;;;;;34.93;20.60;;;4.70;87.50;;;;;;6277273;22;19996;-71
2023/03/04 06:32:57;;;;;;;34.90;19.57;;;4.70;87.60;;;;;;6276736;22;20031;-71
2023/03/04 06:35:23;;;;;;;31.60;20.03;;;4.70;87.80;;;;;;6277251;22;20000;-72
2023/03/04 06:37:48;;;;;;;33.27;19.90;;;4.80;88.00;;;;;;6276291;22;20034;-71
2023/03/04 06:40:14;;;;;;;30.43;20.50;;;4.80;88.20;;;;;;6276539;22;19996;-71
2023/03/04 06:42:41;;;;;;;32.73;20.37;;;4.80;88.10;;;;;;6276990;22;20000;-72
2023/03/04 06:45:08;;;;;;;34.43;20.07;;;4.90;88.30;;;;;;6277065;22;20003;-72
2023/03/04 06:47:34;;;;;;;29.50;20.20;;;4.90;88.50;;;;;;6260362;22;20012;-64
2023/03/04 06:49:59;;;;;;;42.47;20.90;;;4.90;88.60;;;;;;6215781;23;20051;-65
2023/03/04 06:52:25;;;;;;;30.17;20.20;;;5.00;88.60;;;;;;6214460;23;20016;-65
2023/03/04 06:54:51;;;;;;;31.70;20.13;;;5.10;89.10;;;;;;6215925;23;19997;-65
2023/03/04 06:57:17;;;;;;;34.87;20.93;;;5.10;89.20;;;;;;6216306;23;20005;-65
2023/03/04 06:59:42;;;;;;;34.60;21.50;;;5.10;89.20;;;;;;6216382;23;20024;-65
2023/03/04 07:02:12;;;;;;;34.07;22.00;;;5.20;89.20;;;;;;6216029;23;20000;-65
2023/03/04 07:04:38;;;;;;;33.40;21.17;;;5.20;89.10;;;;;;6216026;23;19996;-65
2023/03/04 07:07:04;;;;;;;34.97;21.77;;;5.30;89.20;;;;;;6216263;23;20011;-65
2023/03/04 07:09:30;;;;;;;34.30;21.97;;;5.40;89.10;;;;;;6216259;23;20020;-65
2023/03/04 07:11:55;;;;;;;31.27;21.83;;;5.40;89.30;;;;;;6215887;23;20016;-66
2023/03/04 07:14:21;;;;;;;31.13;21.73;;;5.50;89.30;;;;;;6215875;23;20007;-65
2023/03/04 07:16:47;;;;;;;37.73;21.07;;;5.60;89.20;;;;;;6215712;23;20003;-66
2023/03/04 07:19:13;;;;;;;31.77;22.23;;;5.70;89.40;;;;;;6216134;23;20004;-65
2023/03/04 07:21:39;;;;;;;34.83;21.63;;;5.70;89.40;;;;;;6216128;23;20012;-65
2023/03/04 07:24:05;;;;;;;31.80;21.40;;;5.70;89.10;;;;;;6215636;23;20000;-65
2023/03/04 07:26:30;;;;;;;32.37;22.07;;;5.80;89.00;;;;;;6215965;23;20467;-66
2023/03/04 07:28:58;;;;;;;30.20;21.87;;;5.80;88.90;;;;;;6215665;23;20035;-65
2023/03/04 07:31:28;;;;;;;35.53;21.47;;;5.90;89.00;;;;;;6216192;23;20019;-65
2023/03/04 07:34:05;;;;;;;33.27;22.27;;;6.00;88.90;;;;;;6215344;23;20017;-65
2023/03/04 07:36:34;;;;;;;34.17;22.87;;;6.00;88.70;;;;;;6215303;23;20011;-66
2023/03/04 07:38:59;;;;;;;32.40;21.47;;;6.10;88.70;;;;;;6215887;23;20000;-65
2023/03/04 07:41:26;;;;;;;33.30;22.77;;;6.10;88.80;;;;;;6215672;23;20323;-66
2023/03/04 07:43:52;;;;;;;32.90;21.60;;;6.20;88.80;;;;;;6215109;23;20091;-65
2023/03/04 07:46:18;;;;;;;32.67;21.17;;;6.30;88.90;;;;;;6214988;23;20039;-69
2023/03/04 07:48:44;;;;;;;32.17;20.87;;;6.40;89.10;;;;;;6215200;23;20070;-65
2023/03/04 07:51:14;;;;;;;34.07;21.50;;;6.40;89.20;;;;;;6215994;23;20013;-67
2023/03/04 07:53:41;;;;;;;34.60;20.83;;;6.50;89.20;;;;;;6216106;23;20008;-65
2023/03/04 07:56:11;;;;;;;35.43;21.33;;;6.60;89.30;;;;;;6215735;23;20011;-66
2023/03/04 07:58:36;;;;;;;34.10;22.97;;;6.70;89.40;;;;;;6215656;23;20008;-65
2023/03/04 08:01:11;;;;;;;43.73;26.27;;;6.80;89.40;;;;;;6215617;23;20341;-65
2023/03/04 08:03:37;;;;;;;43.37;25.27;;;6.80;89.60;;;;;;6215441;23;20001;-67
2023/03/04 08:06:05;;;;;;;41.80;26.10;;;6.90;89.60;;;;;;6215690;23;20001;-65
2023/03/04 08:08:31;;;;;;;44.30;28.03;;;7.00;89.50;;;;;;6215683;23;20080;-65
2023/03/04 08:10:57;;;;;;;38.97;25.97;;;7.10;89.20;;;;;;6215564;23;20051;-65
2023/03/04 08:13:23;;;;;;;42.80;25.80;;;7.20;89.10;;;;;;6215413;23;20027;-65
2023/03/04 08:15:49;;;;;;;45.53;25.67;;;7.20;88.90;;;;;;6215193;23;19996;-65
2023/03/04 08:18:14;;;;;;;44.63;25.37;;;7.30;88.60;;;;;;6215107;23;20008;-65
2023/03/04 08:20:42;;;;;;;43.33;23.93;;;7.30;88.50;;;;;;6214998;23;20051;-65
2023/03/04 08:23:09;;;;;;;37.37;23.23;;;7.40;88.30;;;;;;6215296;23;20024;-65
2023/03/04 08:25:38;;;;;;;36.30;23.33;;;7.50;88.30;;;;;;6215467;23;20080;-65
2023/03/04 08:28:04;;;;;;;30.43;20.87;;;7.60;88.20;;;;;;6215381;23;20122;-65
2023/03/04 08:30:30;;;;;;;37.27;21.93;;;7.70;88.20;;;;;;6215334;23;20001;-65
2023/03/04 08:32:55;;;;;;;32.73;20.60;;;7.80;87.90;;;;;;6215369;23;20019;-65
2023/03/04 08:35:21;;;;;;;32.13;20.90;;;8.00;86.90;;;;;;6188854;23;20004;-65
2023/03/04 08:37:47;;;;;;;37.10;21.00;;;8.00;85.70;;;;;;6215335;23;20004;-65
2023/03/04 08:40:13;;;;;;;33.50;19.20;;;8.20;84.80;;;;;;6215441;23;20028;-65
2023/03/04 08:42:39;;;;;;;29.13;19.07;;;8.30;83.80;;;;;;6214355;23;20015;-64
2023/03/04 08:45:05;;;;;;;33.60;19.67;;;8.30;82.40;;;;;;6213069;23;20001;-65
2023/03/04 08:47:31;;;;;;;29.37;18.90;;;8.50;81.20;;;;;;6213262;23;20309;-65
2023/03/04 08:49:57;;;;;;;28.90;19.47;;;8.60;79.90;;;;;;6212628;23;20128;-65
2023/03/04 08:52:23;;;;;;;29.33;17.70;;;8.70;78.00;;;;;;6212952;23;20036;-65
2023/03/04 08:54:49;;;;;;;27.67;17.63;;;8.70;77.10;;;;;;6213669;23;19996;-65
2023/03/04 08:57:14;;;;;;;28.43;18.17;;;8.90;77.30;;;;;;6213173;23;20005;-65
2023/03/04 08:59:40;;;;;;;29.70;18.47;;;9.00;76.60;;;;;;6213370;23;20000;-65
2023/03/04 09:02:06;;;;;;;30.10;18.67;;;9.00;75.70;;;;;;6214227;23;20001;-65
2023/03/04 09:04:32;;;;;;;29.60;17.67;;;9.10;75.10;;;;;;6214373;23;20001;-65
2023/03/04 09:06:58;;;;;;;24.83;16.67;;;9.20;75.00;;;;;;6214083;23;20336;-66
2023/03/04 09:09:24;;;;;;;24.07;16.37;;;9.30;74.40;;;;;;6214476;23;20424;-65
2023/03/04 09:11:49;;;;;;;25.73;16.57;;;9.40;73.70;;;;;;6214823;23;20087;-65
2023/03/04 09:14:15;;;;;;;25.90;16.37;;;9.50;72.90;;;;;;6214572;23;20007;-65
2023/03/04 09:16:41;;;;;;;27.40;17.03;;;9.50;72.50;;;;;;6214526;23;20028;-64
2023/03/04 09:19:06;;;;;;;28.47;16.73;;;9.60;71.40;;;;;;6209971;23;20009;-64
2023/03/04 09:21:32;;;;;;;25.57;15.80;;;9.70;70.80;;;;;;6211129;23;20032;-65
2023/03/04 09:23:58;;;;;;;32.23;17.07;;;9.80;70.50;;;;;;6213685;23;20127;-65
2023/03/04 09:26:27;;;;;;;28.03;16.27;;;9.90;70.30;;;;;;6214530;23;20610;-64
2023/03/04 09:29:00;;;;;;;27.50;14.57;;;10.00;69.60;;;;;;6214573;23;20005;-63
2023/03/04 09:31:27;;;;;;;26.50;15.37;;;10.00;69.00;;;;;;6215141;23;20012;-64
2023/03/04 09:33:54;;;;;;;22.87;14.17;;;10.10;68.30;;;;;;6214579;23;20081;-65
2023/03/04 09:36:20;;;;;;;28.27;15.53;;;10.20;67.40;;;;;;6214718;23;20028;-65
2023/03/04 09:38:46;;;;;;;25.50;14.37;;;10.30;66.60;;;;;;6215211;23;20003;-65
2023/03/04 09:41:21;;;;;;;23.13;13.30;;;10.40;65.80;;;;;;6214789;23;20111;-65
2023/03/04 09:43:48;;;;;;;23.03;14.10;;;10.40;64.80;;;;;;6212447;23;20015;-65
2023/03/04 09:46:32;;;;;;;23.07;14.10;;;10.50;64.60;;;;;;6211774;23;20007;-65
2023/03/04 09:48:58;;;;;;;25.57;14.70;;;10.60;64.00;;;;;;6211620;23;20091;-66
2023/03/04 09:51:38;;;;;;;25.77;14.17;;;10.70;64.40;;;;;;6214619;23;20044;-65
2023/03/04 09:54:08;;;;;;;25.43;13.43;;;10.80;64.50;;;;;;6214974;23;20001;-65
2023/03/04 09:56:38;;;;;;;21.53;13.53;;;10.90;64.20;;;;;;6214837;23;20000;-65
2023/03/04 09:59:29;;;;;;;19.73;13.57;;;11.00;63.50;;;;;;6214579;23;19997;-65
2023/03/04 10:01:57;;;;;;;20.80;13.50;;;11.10;62.80;;;;;;6215049;23;20032;-65
2023/03/04 10:04:51;;;;;;;24.15;13.25;;;11.20;62.70;;;;;;6214643;23;19996;-65
2023/03/04 10:07:25;;;;;;;26.73;13.43;;;11.30;62.60;;;;;;6214574;23;20000;-65
2023/03/04 10:10:11;;;;;;;21.98;13.73;;;11.30;62.10;;;;;;6217053;23;20340;-65
2023/03/04 10:12:41;;;;;;;23.75;12.82;;;11.40;61.50;;;;;;6216255;23;20036;-65
2023/03/04 10:15:22;;;;;;;25.80;12.75;;;11.50;60.30;;;;;;6216633;23;19997;-65
2023/03/04 10:17:52;;;;;;;19.65;12.52;;;11.60;60.60;;;;;;6216994;23;20355;-65
2023/03/04 10:20:25;;;;;;;21.98;12.20;;;11.60;60.80;;;;;;6216686;23;20009;-65
2023/03/04 10:22:56;;;;;;;27.80;11.95;;;11.70;60.40;;;;;;6216501;23;20047;-65
2023/03/04 10:25:25;;;;;;;20.30;12.25;;;11.80;60.10;;;;;;6216728;23;20318;-65
2023/03/04 10:27:58;;;;;;;25.45;12.57;;;12.00;59.50;;;;;;6216426;23;20000;-65
2023/03/04 10:31:08;;;;;;;19.95;11.13;;;12.10;59.90;;;;;;6216656;23;20331;-65
2023/03/04 10:33:36;;;;;;;19.85;11.50;;;12.20;58.60;;;;;;6095450;23;20093;-65
2023/03/04 10:36:24;;;;;;;25.08;11.88;;;12.20;56.80;;;;;;6200504;23;20015;-65
2023/03/04 10:38:57;;;;;;;20.85;11.27;;;12.30;57.40;;;;;;6216482;23;20360;-65
2023/03/04 10:41:26;;;;;;;19.80;11.88;;;12.40;57.30;;;;;;6216684;23;20327;-65
2023/03/04 10:44:16;;;;;;;17.92;11.65;;;12.50;56.80;;;;;;6216358;23;20008;-65
2023/03/04 10:46:45;;;;;;;20.52;10.88;;;12.60;56.10;;;;;;6201271;23;20004;-64
2023/03/04 10:49:13;;;;;;;19.90;10.60;;;12.70;55.90;;;;;;6216170;23;20390;-65
2023/03/04 10:52:04;;;;;;;20.33;11.40;;;12.70;55.50;;;;;;6215995;23;20012;-65
2023/03/04 10:54:46;;;;;;;22.23;11.75;;;12.80;55.20;;;;;;6170089;23;20008;-66
2023/03/04 10:57:29;;;;;;;22.60;11.68;;;12.80;55.00;;;;;;6216442;23;20079;-65
2023/03/04 10:59:57;;;;;;;20.13;11.95;;;12.90;55.40;;;;;;6216221;23;20000;-65
2023/03/04 11:02:32;;;;;;;20.50;11.32;;;13.00;54.40;;;;;;6216075;23;20005;-65
2023/03/04 11:05:24;;;;;;;21.65;11.65;;;13.00;54.40;;;;;;6216204;23;19997;-65
2023/03/04 11:07:52;;;;;;;21.90;11.68;;;13.10;55.50;;;;;;6216274;23;20001;-65
2023/03/04 11:10:38;;;;;;;23.90;11.35;;;13.20;55.50;;;;;;6216245;23;20015;-65
2023/03/04 11:13:10;;;;;;;22.58;12.82;;;13.20;54.90;;;;;;6216013;23;20017;-65
2023/03/04 11:15:53;;;;;;;23.10;11.10;;;13.30;53.80;;;;;;6216556;23;20072;-65
2023/03/04 11:18:40;;;;;;;23.95;11.68;;;13.30;54.40;;;;;;6216076;23;20428;-65
2023/03/04 11:21:12;;;;;;;18.13;10.82;;;13.40;54.60;;;;;;6216645;23;20005;-65
2023/03/04 11:23:41;;;;;;;28.40;11.20;;;13.50;54.00;;;;;;6215993;23;20009;-65
2023/03/04 11:26:15;;;;;;;19.13;11.07;;;13.60;53.80;;;;;;6216360;23;20323;-65
2023/03/04 11:28:55;;;;;;;22.73;11.48;;;13.70;53.80;;;;;;6216117;23;20379;-65
2023/03/04 11:31:33;;;;;;;20.95;11.40;;;13.70;53.20;;;;;;6216081;23;20010;-65
2023/03/04 11:34:28;;;;;;;20.00;10.85;;;13.80;52.60;;;;;;6215898;23;20008;-66
2023/03/04 11:37:07;;;;;;;17.92;10.75;;;14.00;53.60;;;;;;6216124;23;20455;-65
2023/03/04 11:39:37;;;;;;;17.80;10.45;;;14.00;52.70;;;;;;6216103;23;20332;-66
2023/03/04 11:42:38;;;;;;;24.42;11.13;;;14.10;52.60;;;;;;6216505;23;20363;-66
2023/03/04 11:45:35;;;;;;;21.75;10.35;;;14.20;52.30;;;;;;6216133;23;20446;-65
2023/03/04 11:48:34;;;;;;;18.90;10.23;;;14.30;51.90;;;;;;6169638;23;20514;-66
2023/03/04 11:51:29;;;;;;;18.75;9.43;;;14.40;51.20;;;;;;6215792;23;20067;-65
2023/03/04 11:54:24;;;;;;;14.48;9.18;;;14.50;50.70;;;;;;6215899;23;20036;-65
2023/03/04 11:56:56;;;;;;;18.63;9.38;;;14.60;49.20;;;;;;6212365;23;20375;-66
2023/03/04 11:59:40;;;;;;;13.98;8.20;;;14.70;49.20;;;;;;6215946;23;20309;-65
2023/03/04 12:02:21;;;;;;;13.45;7.35;;;14.80;49.50;;;;;;6215548;23;20027;-65
2023/03/04 12:05:24;;;;;;;24.75;9.68;;;14.90;49.70;;;;;;6215602;23;19997;-65
2023/03/04 12:08:11;;;;;;;22.02;7.90;;;14.90;49.20;;;;;;6215966;23;19997;-65
2023/03/04 12:10:54;;;;;;;16.17;8.48;;;15.00;48.80;;;;;;6215876;23;20008;-65
2023/03/04 12:13:38;;;;;;;17.40;6.82;;;15.10;48.40;;;;;;6215883;23;20066;-65
2023/03/04 12:16:28;;;;;;;15.05;7.43;;;15.20;47.40;;;;;;6215635;23;20005;-65
2023/03/04 12:19:09;;;;;;;20.67;7.55;;;15.30;46.90;;;;;;6215734;23;20009;-65
2023/03/04 12:21:59;;;;;;;18.70;7.60;;;15.40;47.10;;;;;;6215756;23;20007;-65
2023/03/04 12:25:01;;;;;;;17.35;7.13;;;15.40;46.90;;;;;;6215990;23;20008;-65
2023/03/04 12:27:35;;;;;;;16.92;6.93;;;15.50;46.40;;;;;;6213410;23;20058;-65
2023/03/04 12:30:19;;;;;;;14.48;6.50;;;15.60;46.20;;;;;;6211991;23;20003;-65
2023/03/04 12:33:11;;;;;;;15.50;6.88;;;15.70;46.00;;;;;;6211985;23;20048;-65
2023/03/04 12:36:05;;;;;;;19.95;7.05;;;15.80;46.20;;;;;;6215138;23;20007;-65
2023/03/04 12:38:52;;;;;;;18.20;8.10;;;15.90;46.30;;;;;;6215281;23;20443;-65
2023/03/04 12:41:36;;;;;;;12.45;7.07;;;16.00;46.90;;;;;;6215612;23;20009;-65
2023/03/04 12:44:21;;;;;;;15.27;6.93;;;16.10;46.30;;;;;;6214767;23;19997;-66
2023/03/04 12:47:12;;;;;;;15.60;6.72;;;16.20;46.30;;;;;;6215211;23;20012;-65
2023/03/04 12:49:44;;;;;;;12.82;5.80;;;16.20;46.10;;;;;;6215232;23;20024;-65